sensor_id;sensor_type;location;lat;lon;timestamp;pressure;altitude;pressure_sealevel;temperature;humidity
56270;BME280;42176;43.240;27.880;2022-09-13T00:00:14;99590.09;;;17.42;78.42
56270;BME280;42176;43.240;27.880;2022-09-13T00:02:40;99590.09;;;17.42;78.54
56270;BME280;42176;43.240;27.880;2022-09-13T00:05:06;99584.13;;;17.37;78.53
56270;BME280;42176;43.240;27.880;2022-09-13T00:07:32;99581.63;;;17.34;78.86
56270;BME280;42176;43.240;27.880;2022-09-13T00:09:57;99595.00;;;17.34;78.98
56270;BME280;42176;43.240;27.880;2022-09-13T00:12:22;99581.22;;;17.26;79.29
56270;BME280;42176;43.240;27.880;2022-09-13T00:14:48;99588.56;;;17.22;79.18
56270;BME280;42176;43.240;27.880;2022-09-13T00:17:13;99580.78;;;17.17;79.30
56270;BME280;42176;43.240;27.880;2022-09-13T00:19:39;99578.13;;;17.17;78.71
56270;BME280;42176;43.240;27.880;2022-09-13T00:22:04;99587.53;;;17.09;77.20
56270;BME280;42176;43.240;27.880;2022-09-13T00:24:31;99579.44;;;17.10;76.96
56270;BME280;42176;43.240;27.880;2022-09-13T00:26:58;99585.75;;;17.09;78.03
56270;BME280;42176;43.240;27.880;2022-09-13T00:29:25;99587.66;;;17.07;78.59
56270;BME280;42176;43.240;27.880;2022-09-13T00:31:50;99573.31;;;17.08;79.54
56270;BME280;42176;43.240;27.880;2022-09-13T00:34:15;99595.84;;;17.04;80.60
56270;BME280;42176;43.240;27.880;2022-09-13T00:36:41;99567.78;;;16.95;80.35
56270;BME280;42176;43.240;27.880;2022-09-13T00:39:08;99579.53;;;16.93;80.00
56270;BME280;42176;43.240;27.880;2022-09-13T00:41:34;99585.69;;;16.95;79.34
56270;BME280;42176;43.240;27.880;2022-09-13T00:44:00;99595.59;;;16.93;77.28
56270;BME280;42176;43.240;27.880;2022-09-13T00:46:28;99603.88;;;16.88;74.30
56270;BME280;42176;43.240;27.880;2022-09-13T00:49:14;99596.09;;;16.83;73.07
56270;BME280;42176;43.240;27.880;2022-09-13T00:51:46;99613.03;;;16.84;72.54
56270;BME280;42176;43.240;27.880;2022-09-13T00:54:14;99613.88;;;16.84;72.24
56270;BME280;42176;43.240;27.880;2022-09-13T00:56:45;99613.09;;;16.82;71.44
56270;BME280;42176;43.240;27.880;2022-09-13T00:59:18;99620.19;;;16.83;70.99
56270;BME280;42176;43.240;27.880;2022-09-13T01:01:53;99628.03;;;16.86;70.53
56270;BME280;42176;43.240;27.880;2022-09-13T01:04:21;99624.94;;;16.78;70.38
56270;BME280;42176;43.240;27.880;2022-09-13T01:06:51;99637.38;;;16.79;70.39
56270;BME280;42176;43.240;27.880;2022-09-13T01:09:18;99635.19;;;16.70;70.61
56270;BME280;42176;43.240;27.880;2022-09-13T01:11:58;99629.06;;;16.68;70.78
56270;BME280;42176;43.240;27.880;2022-09-13T01:14:29;99646.69;;;16.72;70.75
56270;BME280;42176;43.240;27.880;2022-09-13T01:16:56;99641.00;;;16.78;70.68
56270;BME280;42176;43.240;27.880;2022-09-13T01:19:21;99636.59;;;16.77;69.97
56270;BME280;42176;43.240;27.880;2022-09-13T01:38:05;99637.38;;;16.79;65.63
56270;BME280;42176;43.240;27.880;2022-09-13T01:46:03;99652.41;;;16.66;64.61
56270;BME280;42176;43.240;27.880;2022-09-13T01:51:32;99648.56;;;16.70;64.18
56270;BME280;42176;43.240;27.880;2022-09-13T02:02:07;99649.78;;;16.64;63.63
56270;BME280;42176;43.240;27.880;2022-09-13T02:04:42;99642.97;;;16.58;63.88
56270;BME280;42176;43.240;27.880;2022-09-13T02:07:16;99645.13;;;16.52;64.43
56270;BME280;42176;43.240;27.880;2022-09-13T02:09:48;99635.16;;;16.38;64.56
56270;BME280;42176;43.240;27.880;2022-09-13T02:12:20;99636.75;;;16.24;65.09
56270;BME280;42176;43.240;27.880;2022-09-13T02:14:53;99625.00;;;16.11;65.90
56270;BME280;42176;43.240;27.880;2022-09-13T02:17:24;99620.47;;;15.95;66.60
56270;BME280;42176;43.240;27.880;2022-09-13T02:19:57;99617.94;;;15.92;66.48
56270;BME280;42176;43.240;27.880;2022-09-13T02:22:30;99627.53;;;15.96;66.52
56270;BME280;42176;43.240;27.880;2022-09-13T02:25:00;99624.22;;;15.91;66.72
56270;BME280;42176;43.240;27.880;2022-09-13T02:27:32;99617.41;;;15.86;67.22
56270;BME280;42176;43.240;27.880;2022-09-13T02:30:04;99613.38;;;15.77;67.46
56270;BME280;42176;43.240;27.880;2022-09-13T02:35:40;99617.22;;;15.71;67.94
56270;BME280;42176;43.240;27.880;2022-09-13T02:38:09;99612.44;;;15.60;68.27
56270;BME280;42176;43.240;27.880;2022-09-13T02:40:41;99620.19;;;15.65;68.56
56270;BME280;42176;43.240;27.880;2022-09-13T02:43:19;99623.91;;;15.62;68.84
56270;BME280;42176;43.240;27.880;2022-09-13T02:48:35;99615.25;;;15.57;68.74
56270;BME280;42176;43.240;27.880;2022-09-13T02:55:03;99633.19;;;15.55;68.95
56270;BME280;42176;43.240;27.880;2022-09-13T02:57:38;99632.47;;;15.51;69.35
56270;BME280;42176;43.240;27.880;2022-09-13T03:00:07;99618.94;;;15.37;69.84
56270;BME280;42176;43.240;27.880;2022-09-13T03:02:33;99628.44;;;15.43;69.67
56270;BME280;42176;43.240;27.880;2022-09-13T03:05:00;99633.19;;;15.55;69.45
56270;BME280;42176;43.240;27.880;2022-09-13T03:07:26;99636.31;;;15.63;68.73
56270;BME280;42176;43.240;27.880;2022-09-13T03:09:58;99641.38;;;15.70;68.07
56270;BME280;42176;43.240;27.880;2022-09-13T03:15:03;99639.31;;;15.75;67.77
56270;BME280;42176;43.240;27.880;2022-09-13T03:25:38;99646.06;;;15.47;68.12
56270;BME280;42176;43.240;27.880;2022-09-13T03:31:05;99640.41;;;15.35;68.45
56270;BME280;42176;43.240;27.880;2022-09-13T03:36:30;99650.00;;;15.20;68.68
56270;BME280;42176;43.240;27.880;2022-09-13T03:41:49;99659.28;;;15.13;68.90
56270;BME280;42176;43.240;27.880;2022-09-13T03:44:19;99654.09;;;15.10;68.68
56270;BME280;42176;43.240;27.880;2022-09-13T03:46:51;99663.03;;;15.09;68.77
56270;BME280;42176;43.240;27.880;2022-09-13T03:49:19;99656.84;;;15.09;68.66
56270;BME280;42176;43.240;27.880;2022-09-13T03:51:48;99655.38;;;15.01;68.40
56270;BME280;42176;43.240;27.880;2022-09-13T03:54:22;99669.38;;;15.06;68.76
56270;BME280;42176;43.240;27.880;2022-09-13T03:57:11;99665.00;;;15.05;68.39
56270;BME280;42176;43.240;27.880;2022-09-13T03:59:42;99670.31;;;15.05;68.40
56270;BME280;42176;43.240;27.880;2022-09-13T04:02:10;99667.50;;;15.09;68.41
56270;BME280;42176;43.240;27.880;2022-09-13T04:04:40;99673.00;;;15.05;68.40
56270;BME280;42176;43.240;27.880;2022-09-13T04:07:06;99669.38;;;15.06;68.23
56270;BME280;42176;43.240;27.880;2022-09-13T04:09:32;99669.31;;;15.08;68.38
56270;BME280;42176;43.240;27.880;2022-09-13T04:11:58;99687.59;;;15.35;67.79
56270;BME280;42176;43.240;27.880;2022-09-13T04:14:23;99679.09;;;16.16;64.75
56270;BME280;42176;43.240;27.880;2022-09-13T04:16:51;99678.31;;;16.81;61.77
56270;BME280;42176;43.240;27.880;2022-09-13T04:19:17;99681.53;;;17.36;59.42
56270;BME280;42176;43.240;27.880;2022-09-13T04:21:43;99680.94;;;17.92;57.33
56270;BME280;42176;43.240;27.880;2022-09-13T04:24:11;99683.53;;;18.38;55.17
56270;BME280;42176;43.240;27.880;2022-09-13T04:26:36;99681.41;;;19.01;53.12
56270;BME280;42176;43.240;27.880;2022-09-13T04:29:02;99684.41;;;19.39;51.35
56270;BME280;42176;43.240;27.880;2022-09-13T04:31:27;99686.63;;;19.59;50.49
56270;BME280;42176;43.240;27.880;2022-09-13T04:33:52;99689.81;;;19.24;51.23
56270;BME280;42176;43.240;27.880;2022-09-13T04:36:18;99693.34;;;19.25;51.37
56270;BME280;42176;43.240;27.880;2022-09-13T04:38:45;99676.47;;;19.50;50.50
56270;BME280;42176;43.240;27.880;2022-09-13T04:41:11;99685.56;;;19.07;51.68
56270;BME280;42176;43.240;27.880;2022-09-13T04:43:38;99685.41;;;19.23;51.04
56270;BME280;42176;43.240;27.880;2022-09-13T04:46:03;99696.34;;;19.20;51.29
56270;BME280;42176;43.240;27.880;2022-09-13T04:48:28;99702.97;;;19.56;50.34
56270;BME280;42176;43.240;27.880;2022-09-13T04:51:02;99699.69;;;20.32;48.61
56270;BME280;42176;43.240;27.880;2022-09-13T04:53:31;99693.63;;;20.93;46.62
56270;BME280;42176;43.240;27.880;2022-09-13T04:56:03;99705.75;;;21.49;45.55
56270;BME280;42176;43.240;27.880;2022-09-13T05:01:06;99704.66;;;22.81;42.17
56270;BME280;42176;43.240;27.880;2022-09-13T05:03:33;99702.66;;;23.29;40.96
56270;BME280;42176;43.240;27.880;2022-09-13T05:06:03;99704.50;;;23.72;39.95
56270;BME280;42176;43.240;27.880;2022-09-13T05:08:29;99709.72;;;24.17;39.24
56270;BME280;42176;43.240;27.880;2022-09-13T05:10:55;99704.28;;;24.60;38.04
56270;BME280;42176;43.240;27.880;2022-09-13T05:13:20;99702.50;;;25.11;36.88
56270;BME280;42176;43.240;27.880;2022-09-13T05:15:46;99707.19;;;25.50;36.47
56270;BME280;42176;43.240;27.880;2022-09-13T05:18:12;99714.59;;;26.07;35.03
56270;BME280;42176;43.240;27.880;2022-09-13T05:20:37;99707.44;;;26.45;34.05
56270;BME280;42176;43.240;27.880;2022-09-13T05:23:02;99699.56;;;26.89;33.97
56270;BME280;42176;43.240;27.880;2022-09-13T05:25:28;99702.38;;;27.26;32.94
56270;BME280;42176;43.240;27.880;2022-09-13T05:27:53;99707.25;;;27.50;32.14
56270;BME280;42176;43.240;27.880;2022-09-13T05:30:19;99701.72;;;27.96;31.59
56270;BME280;42176;43.240;27.880;2022-09-13T05:32:44;99687.25;;;28.14;30.83
56270;BME280;42176;43.240;27.880;2022-09-13T05:35:10;99705.66;;;28.64;29.93
56270;BME280;42176;43.240;27.880;2022-09-13T05:37:35;99703.75;;;28.91;29.42
56270;BME280;42176;43.240;27.880;2022-09-13T05:40:02;99705.94;;;29.30;28.82
56270;BME280;42176;43.240;27.880;2022-09-13T05:42:27;99693.91;;;29.50;27.76
56270;BME280;42176;43.240;27.880;2022-09-13T05:44:53;99704.00;;;29.90;27.54
56270;BME280;42176;43.240;27.880;2022-09-13T05:47:18;99703.63;;;29.52;27.55
56270;BME280;42176;43.240;27.880;2022-09-13T05:49:44;99692.78;;;30.18;26.99
56270;BME280;42176;43.240;27.880;2022-09-13T05:52:09;99703.66;;;30.51;26.40
56270;BME280;42176;43.240;27.880;2022-09-13T05:54:35;99703.56;;;30.93;25.92
56270;BME280;42176;43.240;27.880;2022-09-13T05:57:02;99703.50;;;31.01;25.30
56270;BME280;42176;43.240;27.880;2022-09-13T05:59:27;99699.38;;;31.68;25.08
56270;BME280;42176;43.240;27.880;2022-09-13T06:01:53;99706.13;;;31.89;24.79
56270;BME280;42176;43.240;27.880;2022-09-13T06:04:18;99710.47;;;32.22;23.68
56270;BME280;42176;43.240;27.880;2022-09-13T06:06:44;99711.03;;;32.70;23.48
56270;BME280;42176;43.240;27.880;2022-09-13T06:09:10;99711.28;;;33.20;22.38
56270;BME280;42176;43.240;27.880;2022-09-13T06:11:36;99717.53;;;33.66;22.18
56270;BME280;42176;43.240;27.880;2022-09-13T06:14:01;99721.81;;;34.12;22.19
56270;BME280;42176;43.240;27.880;2022-09-13T06:16:27;99720.31;;;34.95;21.61
56270;BME280;42176;43.240;27.880;2022-09-13T06:18:52;99715.84;;;35.42;21.05
56270;BME280;42176;43.240;27.880;2022-09-13T06:21:20;99713.84;;;35.85;20.80
56270;BME280;42176;43.240;27.880;2022-09-13T06:23:48;99725.28;;;35.81;20.16
56270;BME280;42176;43.240;27.880;2022-09-13T06:26:17;99722.78;;;36.61;20.06
56270;BME280;42176;43.240;27.880;2022-09-13T06:28:46;99724.88;;;36.72;19.15
56270;BME280;42176;43.240;27.880;2022-09-13T06:31:14;99726.09;;;37.03;19.03
56270;BME280;42176;43.240;27.880;2022-09-13T06:33:41;99731.66;;;36.96;19.43
56270;BME280;42176;43.240;27.880;2022-09-13T06:36:15;99730.16;;;37.46;18.77
56270;BME280;42176;43.240;27.880;2022-09-13T06:38:45;99725.13;;;36.37;19.62
56270;BME280;42176;43.240;27.880;2022-09-13T06:41:13;99726.59;;;36.73;19.19
56270;BME280;42176;43.240;27.880;2022-09-13T06:43:39;99734.56;;;37.08;19.44
56270;BME280;42176;43.240;27.880;2022-09-13T06:46:08;99730.78;;;36.96;19.50
56270;BME280;42176;43.240;27.880;2022-09-13T06:48:39;99733.00;;;37.26;19.17
56270;BME280;42176;43.240;27.880;2022-09-13T06:51:12;99733.00;;;37.71;18.83
56270;BME280;42176;43.240;27.880;2022-09-13T06:53:39;99732.41;;;38.01;18.40
56270;BME280;42176;43.240;27.880;2022-09-13T06:56:06;99731.38;;;38.21;18.04
56270;BME280;42176;43.240;27.880;2022-09-13T06:58:34;99731.16;;;37.97;17.92
56270;BME280;42176;43.240;27.880;2022-09-13T07:01:08;99735.63;;;38.49;17.83
56270;BME280;42176;43.240;27.880;2022-09-13T07:03:37;99733.22;;;38.59;17.14
56270;BME280;42176;43.240;27.880;2022-09-13T07:06:18;99737.53;;;38.74;17.36
56270;BME280;42176;43.240;27.880;2022-09-13T07:08:44;99736.88;;;39.16;16.68
56270;BME280;42176;43.240;27.880;2022-09-13T07:11:11;99736.44;;;39.49;16.45
56270;BME280;42176;43.240;27.880;2022-09-13T07:13:37;99734.44;;;39.87;16.28
56270;BME280;42176;43.240;27.880;2022-09-13T07:16:05;99738.63;;;40.32;15.55
56270;BME280;42176;43.240;27.880;2022-09-13T07:18:31;99735.53;;;39.98;15.73
56270;BME280;42176;43.240;27.880;2022-09-13T07:21:01;99724.22;;;39.69;15.88
56270;BME280;42176;43.240;27.880;2022-09-13T07:23:28;99732.38;;;38.77;15.36
56270;BME280;42176;43.240;27.880;2022-09-13T07:25:55;99748.50;;;39.06;14.64
56270;BME280;42176;43.240;27.880;2022-09-13T07:28:29;99736.53;;;38.68;14.65
56270;BME280;42176;43.240;27.880;2022-09-13T07:31:03;99724.53;;;39.11;14.56
56270;BME280;42176;43.240;27.880;2022-09-13T07:33:28;99732.81;;;38.74;15.07
56270;BME280;42176;43.240;27.880;2022-09-13T07:35:55;99738.09;;;38.06;15.56
56270;BME280;42176;43.240;27.880;2022-09-13T07:38:21;99729.13;;;36.68;16.92
56270;BME280;42176;43.240;27.880;2022-09-13T07:40:56;99724.06;;;36.11;16.80
56270;BME280;42176;43.240;27.880;2022-09-13T07:43:24;99741.69;;;35.34;18.13
56270;BME280;42176;43.240;27.880;2022-09-13T07:46:01;99736.59;;;35.38;18.38
56270;BME280;42176;43.240;27.880;2022-09-13T07:48:28;99739.44;;;35.10;18.87
56270;BME280;42176;43.240;27.880;2022-09-13T07:51:03;99742.19;;;34.74;19.39
56270;BME280;42176;43.240;27.880;2022-09-13T07:53:30;99744.56;;;34.84;19.66
56270;BME280;42176;43.240;27.880;2022-09-13T07:56:02;99734.13;;;34.73;19.79
56270;BME280;42176;43.240;27.880;2022-09-13T07:58:29;99727.72;;;35.43;19.04
56270;BME280;42176;43.240;27.880;2022-09-13T08:03:43;99740.75;;;34.50;19.05
56270;BME280;42176;43.240;27.880;2022-09-13T08:06:09;99739.38;;;33.52;19.45
56270;BME280;42176;43.240;27.880;2022-09-13T08:08:35;99747.66;;;33.74;19.46
56270;BME280;42176;43.240;27.880;2022-09-13T08:11:04;99725.38;;;32.57;20.02
56270;BME280;42176;43.240;27.880;2022-09-13T08:13:30;99736.28;;;33.25;19.95
56270;BME280;42176;43.240;27.880;2022-09-13T08:16:05;99743.19;;;33.73;19.36
56270;BME280;42176;43.240;27.880;2022-09-13T08:18:31;99728.63;;;33.06;19.76
56270;BME280;42176;43.240;27.880;2022-09-13T08:20:58;99734.59;;;33.39;19.83
56270;BME280;42176;43.240;27.880;2022-09-13T08:23:24;99735.25;;;33.27;19.80
56270;BME280;42176;43.240;27.880;2022-09-13T08:25:50;99729.38;;;33.66;19.20
56270;BME280;42176;43.240;27.880;2022-09-13T08:28:18;99719.22;;;33.67;19.58
56270;BME280;42176;43.240;27.880;2022-09-13T08:30:46;99721.78;;;33.32;20.04
56270;BME280;42176;43.240;27.880;2022-09-13T08:33:13;99717.97;;;34.06;18.96
56270;BME280;42176;43.240;27.880;2022-09-13T08:35:38;99730.53;;;33.94;19.21
56270;BME280;42176;43.240;27.880;2022-09-13T08:38:05;99684.53;;;32.24;19.90
56270;BME280;42176;43.240;27.880;2022-09-13T08:40:37;99726.66;;;32.85;19.75
56270;BME280;42176;43.240;27.880;2022-09-13T08:43:11;99716.06;;;32.82;19.85
56270;BME280;42176;43.240;27.880;2022-09-13T08:45:40;99691.75;;;32.93;19.41
56270;BME280;42176;43.240;27.880;2022-09-13T08:48:18;99709.22;;;32.24;20.73
56270;BME280;42176;43.240;27.880;2022-09-13T08:50:47;99698.34;;;32.54;20.25
56270;BME280;42176;43.240;27.880;2022-09-13T08:53:26;99704.16;;;31.98;21.37
56270;BME280;42176;43.240;27.880;2022-09-13T08:56:11;99701.25;;;31.13;22.14
56270;BME280;42176;43.240;27.880;2022-09-13T09:01:30;99684.06;;;30.96;22.42
56270;BME280;42176;43.240;27.880;2022-09-13T09:04:10;99712.56;;;29.71;23.91
56270;BME280;42176;43.240;27.880;2022-09-13T09:06:39;99704.56;;;28.57;25.45
56270;BME280;42176;43.240;27.880;2022-09-13T09:09:09;99693.09;;;28.01;26.40
56270;BME280;42176;43.240;27.880;2022-09-13T09:11:47;99695.53;;;27.49;27.02
56270;BME280;42176;43.240;27.880;2022-09-13T09:14:31;99689.19;;;27.03;27.37
56270;BME280;42176;43.240;27.880;2022-09-13T09:17:09;99696.44;;;26.84;28.32
56270;BME280;42176;43.240;27.880;2022-09-13T09:19:39;99685.91;;;26.04;29.26
56270;BME280;42176;43.240;27.880;2022-09-13T09:22:17;99690.88;;;25.69;30.28
56270;BME280;42176;43.240;27.880;2022-09-13T09:24:48;99686.28;;;25.41;29.83
56270;BME280;42176;43.240;27.880;2022-09-13T09:27:17;99678.00;;;25.32;29.67
56270;BME280;42176;43.240;27.880;2022-09-13T09:29:44;99687.75;;;25.45;29.23
56270;BME280;42176;43.240;27.880;2022-09-13T09:32:33;99675.75;;;25.67;29.27
56270;BME280;42176;43.240;27.880;2022-09-13T09:36:03;99676.91;;;25.64;29.41
56270;BME280;42176;43.240;27.880;2022-09-13T09:38:34;99679.88;;;25.42;30.19
56270;BME280;42176;43.240;27.880;2022-09-13T09:41:04;99668.81;;;25.14;30.35
56270;BME280;42176;43.240;27.880;2022-09-13T09:43:42;99675.69;;;25.18;29.98
56270;BME280;42176;43.240;27.880;2022-09-13T09:46:11;99680.84;;;25.21;29.54
56270;BME280;42176;43.240;27.880;2022-09-13T09:48:51;99672.69;;;25.21;29.61
56270;BME280;42176;43.240;27.880;2022-09-13T09:51:19;99682.81;;;25.19;29.96
56270;BME280;42176;43.240;27.880;2022-09-13T09:53:53;99673.13;;;25.26;29.58
56270;BME280;42176;43.240;27.880;2022-09-13T09:56:27;99686.41;;;25.29;29.68
56270;BME280;42176;43.240;27.880;2022-09-13T09:58:58;99692.25;;;25.24;30.32
56270;BME280;42176;43.240;27.880;2022-09-13T10:01:31;99693.13;;;25.35;29.67
56270;BME280;42176;43.240;27.880;2022-09-13T10:06:39;99705.50;;;25.68;29.06
56270;BME280;42176;43.240;27.880;2022-09-13T10:09:14;99691.19;;;25.66;28.94
56270;BME280;42176;43.240;27.880;2022-09-13T10:11:58;99701.91;;;25.68;28.66
56270;BME280;42176;43.240;27.880;2022-09-13T10:19:40;99692.00;;;25.37;28.72
56270;BME280;42176;43.240;27.880;2022-09-13T10:22:15;99671.09;;;25.08;28.75
56270;BME280;42176;43.240;27.880;2022-09-13T10:24:43;99693.44;;;25.42;29.61
56270;BME280;42176;43.240;27.880;2022-09-13T10:29:52;99683.06;;;24.44;36.58
56270;BME280;42176;43.240;27.880;2022-09-13T10:32:22;99680.53;;;24.00;39.20
56270;BME280;42176;43.240;27.880;2022-09-13T10:34:48;99687.53;;;23.37;40.89
56270;BME280;42176;43.240;27.880;2022-09-13T10:37:21;99704.53;;;22.13;43.87
56270;BME280;42176;43.240;27.880;2022-09-13T10:40:03;99696.59;;;21.75;44.89
56270;BME280;42176;43.240;27.880;2022-09-13T10:42:30;99708.34;;;21.50;45.50
56270;BME280;42176;43.240;27.880;2022-09-13T10:45:01;99697.41;;;21.52;46.04
56270;BME280;42176;43.240;27.880;2022-09-13T10:47:38;99695.03;;;21.36;45.91
56270;BME280;42176;43.240;27.880;2022-09-13T10:50:19;99687.03;;;21.34;46.11
56270;BME280;42176;43.240;27.880;2022-09-13T10:52:56;99667.06;;;21.12;46.57
56270;BME280;42176;43.240;27.880;2022-09-13T10:55:36;99681.53;;;21.11;46.76
56270;BME280;42176;43.240;27.880;2022-09-13T11:00:33;99687.91;;;21.59;45.35
56270;BME280;42176;43.240;27.880;2022-09-13T11:06:09;99688.13;;;21.80;45.78
56270;BME280;42176;43.240;27.880;2022-09-13T11:08:41;99686.72;;;21.87;44.73
56270;BME280;42176;43.240;27.880;2022-09-13T11:27:39;99662.72;;;21.23;47.12
56270;BME280;42176;43.240;27.880;2022-09-13T11:30:18;99664.75;;;20.95;47.01
56270;BME280;42176;43.240;27.880;2022-09-13T11:39:08;99642.28;;;21.07;46.04
56270;BME280;42176;43.240;27.880;2022-09-13T11:56:02;99651.06;;;22.07;45.82
56270;BME280;42176;43.240;27.880;2022-09-13T11:58:15;99649.59;;;22.14;45.06
56270;BME280;42176;43.240;27.880;2022-09-13T12:00:56;99648.97;;;21.99;45.00
56270;BME280;42176;43.240;27.880;2022-09-13T12:06:05;99644.25;;;21.54;46.38
56270;BME280;42176;43.240;27.880;2022-09-13T12:08:36;99649.63;;;21.54;45.92
56270;BME280;42176;43.240;27.880;2022-09-13T12:11:11;99659.50;;;21.66;44.89
56270;BME280;42176;43.240;27.880;2022-09-13T12:13:47;99660.16;;;21.70;45.59
56270;BME280;42176;43.240;27.880;2022-09-13T12:19:12;99660.00;;;21.60;44.74
56270;BME280;42176;43.240;27.880;2022-09-13T12:21:40;99656.75;;;21.55;44.83
56270;BME280;42176;43.240;27.880;2022-09-13T12:25:01;99663.72;;;21.82;45.23
56270;BME280;42176;43.240;27.880;2022-09-13T12:27:16;99648.72;;;21.66;45.66
56270;BME280;42176;43.240;27.880;2022-09-13T12:29:52;99667.81;;;21.87;45.31
56270;BME280;42176;43.240;27.880;2022-09-13T12:32:18;99667.38;;;21.69;45.79
56270;BME280;42176;43.240;27.880;2022-09-13T12:34:57;99664.59;;;21.58;45.68
56270;BME280;42176;43.240;27.880;2022-09-13T12:46:21;99672.81;;;21.81;46.38
56270;BME280;42176;43.240;27.880;2022-09-13T12:49:15;99660.41;;;21.54;47.84
56270;BME280;42176;43.240;27.880;2022-09-13T12:54:43;99657.53;;;21.20;48.36
56270;BME280;42176;43.240;27.880;2022-09-13T13:02:43;99679.69;;;21.36;48.91
56270;BME280;42176;43.240;27.880;2022-09-13T13:05:20;99680.59;;;21.24;48.98
56270;BME280;42176;43.240;27.880;2022-09-13T13:07:57;99672.53;;;21.24;48.53
56270;BME280;42176;43.240;27.880;2022-09-13T13:10:29;99669.72;;;21.01;49.05
56270;BME280;42176;43.240;27.880;2022-09-13T13:13:12;99682.94;;;21.04;49.51
56270;BME280;42176;43.240;27.880;2022-09-13T13:23:29;99672.34;;;21.38;47.79
56270;BME280;42176;43.240;27.880;2022-09-13T13:57:23;99700.19;;;21.02;48.17
56270;BME280;42176;43.240;27.880;2022-09-13T14:00:17;99701.44;;;20.84;48.97
56270;BME280;42176;43.240;27.880;2022-09-13T14:21:43;99689.41;;;21.39;47.74
56270;BME280;42176;43.240;27.880;2022-09-13T14:26:47;99695.03;;;21.36;47.55
56270;BME280;42176;43.240;27.880;2022-09-13T14:29:20;99704.38;;;21.06;47.99
56270;BME280;42176;43.240;27.880;2022-09-13T14:31:49;99710.28;;;21.11;47.91
56270;BME280;42176;43.240;27.880;2022-09-13T14:34:23;99708.59;;;21.34;47.55
56270;BME280;42176;43.240;27.880;2022-09-13T14:36:54;99703.69;;;21.28;47.30
56270;BME280;42176;43.240;27.880;2022-09-13T14:39:20;99695.88;;;21.36;47.48
56270;BME280;42176;43.240;27.880;2022-09-13T14:41:45;99715.09;;;21.56;47.21
56270;BME280;42176;43.240;27.880;2022-09-13T14:44:21;99724.25;;;21.66;47.25
56270;BME280;42176;43.240;27.880;2022-09-13T14:46:52;99714.19;;;21.68;47.19
56270;BME280;42176;43.240;27.880;2022-09-13T14:49:25;99723.81;;;21.84;47.21
56270;BME280;42176;43.240;27.880;2022-09-13T14:52:04;99710.56;;;21.81;47.09
56270;BME280;42176;43.240;27.880;2022-09-13T14:54:41;99722.09;;;21.58;47.22
56270;BME280;42176;43.240;27.880;2022-09-13T14:57:18;99706.78;;;21.59;46.97
56270;BME280;42176;43.240;27.880;2022-09-13T14:59:48;99718.00;;;21.53;47.11
56270;BME280;42176;43.240;27.880;2022-09-13T15:02:36;99727.31;;;21.24;47.74
56270;BME280;42176;43.240;27.880;2022-09-13T15:05:12;99724.03;;;21.32;47.63
56270;BME280;42176;43.240;27.880;2022-09-13T15:07:40;99709.44;;;21.10;47.72
56270;BME280;42176;43.240;27.880;2022-09-13T15:10:20;99724.03;;;20.95;48.75
56270;BME280;42176;43.240;27.880;2022-09-13T15:15:32;99732.66;;;21.00;49.04
56270;BME280;42176;43.240;27.880;2022-09-13T15:23:33;99733.06;;;20.94;49.29
56270;BME280;42176;43.240;27.880;2022-09-13T15:26:12;99731.97;;;20.58;50.71
56270;BME280;42176;43.240;27.880;2022-09-13T15:31:32;99727.47;;;20.45;51.42
56270;BME280;42176;43.240;27.880;2022-09-13T15:36:42;99745.75;;;20.40;52.02
56270;BME280;42176;43.240;27.880;2022-09-13T15:39:27;99741.44;;;20.24;51.89
56270;BME280;42176;43.240;27.880;2022-09-13T15:41:58;99730.91;;;20.21;51.75
56270;BME280;42176;43.240;27.880;2022-09-13T15:44:35;99737.34;;;20.19;51.83
56270;BME280;42176;43.240;27.880;2022-09-13T15:47:02;99748.34;;;20.29;52.12
56270;BME280;42176;43.240;27.880;2022-09-13T15:49:32;99732.41;;;20.26;51.38
56270;BME280;42176;43.240;27.880;2022-09-13T15:52:02;99741.44;;;20.24;51.61
56270;BME280;42176;43.240;27.880;2022-09-13T15:54:35;99745.84;;;20.26;51.89
56270;BME280;42176;43.240;27.880;2022-09-13T15:57:11;99745.13;;;20.23;52.13
56270;BME280;42176;43.240;27.880;2022-09-13T15:59:37;99744.59;;;20.31;52.59
56270;BME280;42176;43.240;27.880;2022-09-13T16:02:27;99740.38;;;20.40;51.37
56270;BME280;42176;43.240;27.880;2022-09-13T16:04:53;99749.53;;;20.37;51.28
56270;BME280;42176;43.240;27.880;2022-09-13T16:07:20;99757.84;;;20.47;51.51
56270;BME280;42176;43.240;27.880;2022-09-13T16:09:46;99751.38;;;20.50;51.31
56270;BME280;42176;43.240;27.880;2022-09-13T16:12:12;99752.22;;;20.63;51.53
56270;BME280;42176;43.240;27.880;2022-09-13T16:14:38;99744.28;;;20.62;51.10
56270;BME280;42176;43.240;27.880;2022-09-13T16:17:22;99744.94;;;20.52;51.48
56270;BME280;42176;43.240;27.880;2022-09-13T16:19:48;99749.88;;;20.33;51.92
56270;BME280;42176;43.240;27.880;2022-09-13T16:22:13;99746.53;;;20.42;52.51
56270;BME280;42176;43.240;27.880;2022-09-13T16:24:41;99745.13;;;20.49;52.21
56270;BME280;42176;43.240;27.880;2022-09-13T16:27:09;99745.31;;;20.33;52.33
56270;BME280;42176;43.240;27.880;2022-09-13T16:29:36;99760.16;;;20.13;53.21
56270;BME280;42176;43.240;27.880;2022-09-13T16:32:01;99760.19;;;20.26;54.00
56270;BME280;42176;43.240;27.880;2022-09-13T16:34:27;99759.88;;;20.31;54.10
56270;BME280;42176;43.240;27.880;2022-09-13T16:36:59;99741.75;;;20.20;55.82
56270;BME280;42176;43.240;27.880;2022-09-13T16:39:24;99758.06;;;20.31;55.09
56270;BME280;42176;43.240;27.880;2022-09-13T16:41:50;99763.44;;;20.31;55.90
56270;BME280;42176;43.240;27.880;2022-09-13T16:44:15;99773.97;;;20.34;55.48
56270;BME280;42176;43.240;27.880;2022-09-13T16:46:41;99774.84;;;20.35;55.49